sensor_id;sensor_type;location;lat;lon;timestamp;P1;durP1;ratioP1;P2;durP2;ratioP2
56045;SDS011;41913;51.030;3.706;2023-04-03T00:00:31;1.20;;;1.20;;
56045;SDS011;41913;51.030;3.706;2023-04-03T00:02:59;1.48;;;1.45;;
56045;SDS011;41913;51.030;3.706;2023-04-03T00:05:25;1.45;;;1.35;;
56045;SDS011;41913;51.030;3.706;2023-04-03T00:07:51;1.40;;;1.40;;
56045;SDS011;41913;51.030;3.706;2023-04-03T00:10:16;1.48;;;1.48;;
56045;SDS011;41913;51.030;3.706;2023-04-03T00:12:42;1.40;;;1.40;;
56045;SDS011;41913;51.030;3.706;2023-04-03T00:15:09;1.50;;;1.40;;
56045;SDS011;41913;51.030;3.706;2023-04-03T00:17:42;1.05;;;1.05;;
56045;SDS011;41913;51.030;3.706;2023-04-03T00:20:09;1.20;;;1.20;;
56045;SDS011;41913;51.030;3.706;2023-04-03T00:25:04;1.52;;;1.52;;
56045;SDS011;41913;51.030;3.706;2023-04-03T00:27:30;1.48;;;1.40;;
56045;SDS011;41913;51.030;3.706;2023-04-03T00:29:56;1.35;;;1.35;;
56045;SDS011;41913;51.030;3.706;2023-04-03T00:32:22;1.65;;;1.55;;
56045;SDS011;41913;51.030;3.706;2023-04-03T00:34:51;1.60;;;1.50;;
56045;SDS011;41913;51.030;3.706;2023-04-03T00:37:22;1.27;;;1.20;;
56045;SDS011;41913;51.030;3.706;2023-04-03T00:39:48;1.25;;;1.25;;
56045;SDS011;41913;51.030;3.706;2023-04-03T00:42:15;1.30;;;1.23;;
56045;SDS011;41913;51.030;3.706;2023-04-03T00:47:10;1.10;;;1.10;;
56045;SDS011;41913;51.030;3.706;2023-04-03T00:49:39;1.63;;;1.52;;
56045;SDS011;41913;51.030;3.706;2023-04-03T00:54:39;1.20;;;1.10;;
56045;SDS011;41913;51.030;3.706;2023-04-03T00:57:06;1.20;;;1.20;;
56045;SDS011;41913;51.030;3.706;2023-04-03T00:59:35;1.40;;;1.38;;
56045;SDS011;41913;51.030;3.706;2023-04-03T01:02:07;0.95;;;0.95;;
56045;SDS011;41913;51.030;3.706;2023-04-03T01:04:34;1.02;;;1.02;;
56045;SDS011;41913;51.030;3.706;2023-04-03T01:07:03;1.10;;;1.10;;
56045;SDS011;41913;51.030;3.706;2023-04-03T01:09:32;1.33;;;1.33;;
56045;SDS011;41913;51.030;3.706;2023-04-03T01:12:15;0.85;;;0.85;;
56045;SDS011;41913;51.030;3.706;2023-04-03T01:14:44;1.10;;;1.10;;
56045;SDS011;41913;51.030;3.706;2023-04-03T01:25:51;1.00;;;1.00;;
56045;SDS011;41913;51.030;3.706;2023-04-03T01:28:33;0.90;;;0.90;;
56045;SDS011;41913;51.030;3.706;2023-04-03T01:33:32;0.93;;;0.93;;
56045;SDS011;41913;51.030;3.706;2023-04-03T01:35:57;0.88;;;0.88;;
56045;SDS011;41913;51.030;3.706;2023-04-03T01:38:23;0.60;;;0.60;;
56045;SDS011;41913;51.030;3.706;2023-04-03T01:40:49;0.88;;;0.88;;
56045;SDS011;41913;51.030;3.706;2023-04-03T01:43:16;1.00;;;1.00;;
56045;SDS011;41913;51.030;3.706;2023-04-03T01:45:42;1.05;;;1.05;;
56045;SDS011;41913;51.030;3.706;2023-04-03T01:48:07;0.88;;;0.88;;
56045;SDS011;41913;51.030;3.706;2023-04-03T01:50:34;1.00;;;1.00;;
56045;SDS011;41913;51.030;3.706;2023-04-03T01:53:00;0.93;;;0.93;;
56045;SDS011;41913;51.030;3.706;2023-04-03T01:55:27;0.60;;;0.60;;
56045;SDS011;41913;51.030;3.706;2023-04-03T01:57:53;1.00;;;0.90;;
56045;SDS011;41913;51.030;3.706;2023-04-03T02:00:20;0.82;;;0.82;;
56045;SDS011;41913;51.030;3.706;2023-04-03T02:02:46;0.70;;;0.70;;
56045;SDS011;41913;51.030;3.706;2023-04-03T02:05:12;0.77;;;0.77;;
56045;SDS011;41913;51.030;3.706;2023-04-03T02:07:38;0.80;;;0.80;;
56045;SDS011;41913;51.030;3.706;2023-04-03T02:10:04;1.10;;;1.10;;
56045;SDS011;41913;51.030;3.706;2023-04-03T02:12:34;1.15;;;1.15;;
56045;SDS011;41913;51.030;3.706;2023-04-03T02:14:59;0.90;;;0.90;;
56045;SDS011;41913;51.030;3.706;2023-04-03T02:17:26;0.73;;;0.73;;
56045;SDS011;41913;51.030;3.706;2023-04-03T02:19:57;0.70;;;0.70;;
56045;SDS011;41913;51.030;3.706;2023-04-03T02:22:24;1.00;;;1.00;;
56045;SDS011;41913;51.030;3.706;2023-04-03T02:24:51;0.90;;;0.90;;
56045;SDS011;41913;51.030;3.706;2023-04-03T02:27:18;1.83;;;1.10;;
56045;SDS011;41913;51.030;3.706;2023-04-03T02:29:44;1.05;;;0.98;;
56045;SDS011;41913;51.030;3.706;2023-04-03T02:32:11;0.73;;;0.73;;
56045;SDS011;41913;51.030;3.706;2023-04-03T02:34:36;1.33;;;1.33;;
56045;SDS011;41913;51.030;3.706;2023-04-03T02:37:04;0.70;;;0.70;;
56045;SDS011;41913;51.030;3.706;2023-04-03T02:39:30;0.65;;;0.65;;
56045;SDS011;41913;51.030;3.706;2023-04-03T02:41:56;1.10;;;1.10;;
56045;SDS011;41913;51.030;3.706;2023-04-03T02:44:23;0.73;;;0.73;;
56045;SDS011;41913;51.030;3.706;2023-04-03T02:46:49;0.75;;;0.75;;
56045;SDS011;41913;51.030;3.706;2023-04-03T02:49:15;0.80;;;0.80;;
56045;SDS011;41913;51.030;3.706;2023-04-03T02:51:40;0.75;;;0.75;;
56045;SDS011;41913;51.030;3.706;2023-04-03T02:54:08;0.82;;;0.82;;
56045;SDS011;41913;51.030;3.706;2023-04-03T02:56:34;0.80;;;0.80;;
56045;SDS011;41913;51.030;3.706;2023-04-03T02:59:01;0.50;;;0.50;;
56045;SDS011;41913;51.030;3.706;2023-04-03T03:01:27;0.60;;;0.60;;
56045;SDS011;41913;51.030;3.706;2023-04-03T03:03:56;0.70;;;0.70;;
56045;SDS011;41913;51.030;3.706;2023-04-03T03:06:22;1.92;;;1.30;;
56045;SDS011;41913;51.030;3.706;2023-04-03T03:08:49;0.70;;;0.70;;
56045;SDS011;41913;51.030;3.706;2023-04-03T03:11:17;0.60;;;0.60;;
56045;SDS011;41913;51.030;3.706;2023-04-03T03:13:44;0.55;;;0.55;;
56045;SDS011;41913;51.030;3.706;2023-04-03T03:16:11;0.85;;;0.85;;
56045;SDS011;41913;51.030;3.706;2023-04-03T03:18:38;0.57;;;0.57;;
56045;SDS011;41913;51.030;3.706;2023-04-03T03:21:03;0.40;;;0.40;;
56045;SDS011;41913;51.030;3.706;2023-04-03T03:23:30;0.57;;;0.57;;
56045;SDS011;41913;51.030;3.706;2023-04-03T03:28:34;2.42;;;1.20;;
56045;SDS011;41913;51.030;3.706;2023-04-03T03:31:01;0.73;;;0.73;;
56045;SDS011;41913;51.030;3.706;2023-04-03T03:33:27;0.57;;;0.57;;
56045;SDS011;41913;51.030;3.706;2023-04-03T03:35:54;0.80;;;0.80;;
56045;SDS011;41913;51.030;3.706;2023-04-03T03:38:21;0.90;;;0.90;;
56045;SDS011;41913;51.030;3.706;2023-04-03T03:40:49;0.65;;;0.65;;
56045;SDS011;41913;51.030;3.706;2023-04-03T03:43:16;0.70;;;0.70;;
56045;SDS011;41913;51.030;3.706;2023-04-03T03:45:43;0.75;;;0.75;;
56045;SDS011;41913;51.030;3.706;2023-04-03T03:48:11;0.70;;;0.70;;
56045;SDS011;41913;51.030;3.706;2023-04-03T03:50:40;0.45;;;0.45;;
56045;SDS011;41913;51.030;3.706;2023-04-03T03:53:05;0.50;;;0.50;;
56045;SDS011;41913;51.030;3.706;2023-04-03T03:55:32;0.60;;;0.60;;
56045;SDS011;41913;51.030;3.706;2023-04-03T03:57:59;0.57;;;0.57;;
56045;SDS011;41913;51.030;3.706;2023-04-03T04:00:26;0.75;;;0.75;;
56045;SDS011;41913;51.030;3.706;2023-04-03T04:02:54;0.57;;;0.57;;
56045;SDS011;41913;51.030;3.706;2023-04-03T04:05:22;0.60;;;0.60;;
56045;SDS011;41913;51.030;3.706;2023-04-03T04:07:48;0.50;;;0.50;;
56045;SDS011;41913;51.030;3.706;2023-04-03T04:10:14;0.47;;;0.47;;
56045;SDS011;41913;51.030;3.706;2023-04-03T04:12:46;0.50;;;0.50;;
56045;SDS011;41913;51.030;3.706;2023-04-03T04:15:14;1.05;;;1.05;;
56045;SDS011;41913;51.030;3.706;2023-04-03T04:17:42;0.70;;;0.70;;
56045;SDS011;41913;51.030;3.706;2023-04-03T04:20:09;0.57;;;0.57;;
56045;SDS011;41913;51.030;3.706;2023-04-03T04:22:38;0.70;;;0.70;;
56045;SDS011;41913;51.030;3.706;2023-04-03T04:25:04;0.80;;;0.80;;
56045;SDS011;41913;51.030;3.706;2023-04-03T04:27:36;0.80;;;0.80;;
56045;SDS011;41913;51.030;3.706;2023-04-03T04:30:03;0.50;;;0.50;;
56045;SDS011;41913;51.030;3.706;2023-04-03T04:32:29;0.38;;;0.38;;
56045;SDS011;41913;51.030;3.706;2023-04-03T04:34:55;0.60;;;0.60;;
56045;SDS011;41913;51.030;3.706;2023-04-03T04:37:21;0.52;;;0.52;;
56045;SDS011;41913;51.030;3.706;2023-04-03T04:39:50;0.57;;;0.57;;
56045;SDS011;41913;51.030;3.706;2023-04-03T04:42:16;0.60;;;0.60;;
56045;SDS011;41913;51.030;3.706;2023-04-03T04:44:45;0.55;;;0.55;;
56045;SDS011;41913;51.030;3.706;2023-04-03T04:49:57;0.50;;;0.50;;
56045;SDS011;41913;51.030;3.706;2023-04-03T04:52:25;0.60;;;0.60;;
56045;SDS011;41913;51.030;3.706;2023-04-03T04:54:58;0.70;;;0.70;;
56045;SDS011;41913;51.030;3.706;2023-04-03T04:57:27;0.70;;;0.70;;
56045;SDS011;41913;51.030;3.706;2023-04-03T04:59:53;0.40;;;0.40;;
56045;SDS011;41913;51.030;3.706;2023-04-03T05:02:19;0.60;;;0.50;;
56045;SDS011;41913;51.030;3.706;2023-04-03T05:04:47;0.55;;;0.55;;
56045;SDS011;41913;51.030;3.706;2023-04-03T05:09:44;0.70;;;0.70;;
56045;SDS011;41913;51.030;3.706;2023-04-03T05:12:11;0.60;;;0.60;;
56045;SDS011;41913;51.030;3.706;2023-04-03T05:14:38;0.63;;;0.63;;
56045;SDS011;41913;51.030;3.706;2023-04-03T05:17:04;0.38;;;0.38;;
56045;SDS011;41913;51.030;3.706;2023-04-03T05:19:31;0.82;;;0.57;;
56045;SDS011;41913;51.030;3.706;2023-04-03T05:21:57;0.50;;;0.50;;
56045;SDS011;41913;51.030;3.706;2023-04-03T05:24:24;0.45;;;0.45;;
56045;SDS011;41913;51.030;3.706;2023-04-03T05:29:20;0.80;;;0.80;;
56045;SDS011;41913;51.030;3.706;2023-04-03T05:31:48;0.40;;;0.40;;
56045;SDS011;41913;51.030;3.706;2023-04-03T05:34:18;0.60;;;0.60;;
56045;SDS011;41913;51.030;3.706;2023-04-03T05:36:44;0.50;;;0.50;;
56045;SDS011;41913;51.030;3.706;2023-04-03T05:39:14;0.80;;;0.80;;
56045;SDS011;41913;51.030;3.706;2023-04-03T05:41:41;0.57;;;0.57;;
56045;SDS011;41913;51.030;3.706;2023-04-03T05:46:54;0.50;;;0.50;;
56045;SDS011;41913;51.030;3.706;2023-04-03T05:55:05;0.45;;;0.45;;
56045;SDS011;41913;51.030;3.706;2023-04-03T05:57:31;0.70;;;0.70;;
56045;SDS011;41913;51.030;3.706;2023-04-03T05:59:59;0.50;;;0.50;;
56045;SDS011;41913;51.030;3.706;2023-04-03T06:02:25;0.55;;;0.55;;
56045;SDS011;41913;51.030;3.706;2023-04-03T06:04:51;0.55;;;0.55;;
56045;SDS011;41913;51.030;3.706;2023-04-03T06:07:19;0.50;;;0.50;;
56045;SDS011;41913;51.030;3.706;2023-04-03T06:09:49;0.73;;;0.70;;
56045;SDS011;41913;51.030;3.706;2023-04-03T06:12:16;0.55;;;0.55;;
56045;SDS011;41913;51.030;3.706;2023-04-03T06:14:42;0.77;;;0.77;;
56045;SDS011;41913;51.030;3.706;2023-04-03T06:17:10;0.50;;;0.50;;
56045;SDS011;41913;51.030;3.706;2023-04-03T06:19:41;0.63;;;0.63;;
56045;SDS011;41913;51.030;3.706;2023-04-03T06:22:07;0.50;;;0.50;;
56045;SDS011;41913;51.030;3.706;2023-04-03T06:24:34;0.63;;;0.63;;
56045;SDS011;41913;51.030;3.706;2023-04-03T06:27:00;0.70;;;0.70;;
56045;SDS011;41913;51.030;3.706;2023-04-03T06:29:26;0.55;;;0.55;;
56045;SDS011;41913;51.030;3.706;2023-04-03T06:34:43;0.70;;;0.70;;
56045;SDS011;41913;51.030;3.706;2023-04-03T06:37:18;0.50;;;0.50;;
56045;SDS011;41913;51.030;3.706;2023-04-03T06:40:04;0.60;;;0.60;;
56045;SDS011;41913;51.030;3.706;2023-04-03T06:42:44;0.40;;;0.40;;
56045;SDS011;41913;51.030;3.706;2023-04-03T06:45:11;0.73;;;0.73;;
56045;SDS011;41913;51.030;3.706;2023-04-03T06:47:37;0.57;;;0.57;;
56045;SDS011;41913;51.030;3.706;2023-04-03T06:50:05;0.70;;;0.70;;
56045;SDS011;41913;51.030;3.706;2023-04-03T06:52:34;0.50;;;0.50;;
56045;SDS011;41913;51.030;3.706;2023-04-03T06:57:45;1.20;;;0.70;;
56045;SDS011;41913;51.030;3.706;2023-04-03T07:00:12;0.60;;;0.60;;
56045;SDS011;41913;51.030;3.706;2023-04-03T07:02:44;0.63;;;0.63;;
56045;SDS011;41913;51.030;3.706;2023-04-03T07:05:11;0.55;;;0.55;;
56045;SDS011;41913;51.030;3.706;2023-04-03T07:10:37;0.60;;;0.60;;
56045;SDS011;41913;51.030;3.706;2023-04-03T07:13:03;0.65;;;0.65;;
56045;SDS011;41913;51.030;3.706;2023-04-03T07:15:31;0.57;;;0.57;;
56045;SDS011;41913;51.030;3.706;2023-04-03T07:17:59;0.70;;;0.70;;
56045;SDS011;41913;51.030;3.706;2023-04-03T07:20:26;0.52;;;0.52;;
56045;SDS011;41913;51.030;3.706;2023-04-03T07:22:52;0.50;;;0.50;;
56045;SDS011;41913;51.030;3.706;2023-04-03T07:28:26;0.65;;;0.65;;
56045;SDS011;41913;51.030;3.706;2023-04-03T07:31:11;0.50;;;0.50;;
56045;SDS011;41913;51.030;3.706;2023-04-03T07:33:39;0.50;;;0.50;;
56045;SDS011;41913;51.030;3.706;2023-04-03T07:36:08;0.88;;;0.88;;
56045;SDS011;41913;51.030;3.706;2023-04-03T07:41:30;0.60;;;0.60;;
56045;SDS011;41913;51.030;3.706;2023-04-03T07:43:59;0.63;;;0.63;;
56045;SDS011;41913;51.030;3.706;2023-04-03T07:49:00;0.40;;;0.40;;
56045;SDS011;41913;51.030;3.706;2023-04-03T07:51:25;0.95;;;0.95;;
56045;SDS011;41913;51.030;3.706;2023-04-03T07:53:51;0.40;;;0.40;;
56045;SDS011;41913;51.030;3.706;2023-04-03T07:56:24;0.63;;;0.63;;
56045;SDS011;41913;51.030;3.706;2023-04-03T08:01:27;0.63;;;0.63;;
56045;SDS011;41913;51.030;3.706;2023-04-03T08:06:22;0.40;;;0.40;;
56045;SDS011;41913;51.030;3.706;2023-04-03T08:08:48;0.60;;;0.60;;
56045;SDS011;41913;51.030;3.706;2023-04-03T08:11:14;0.50;;;0.50;;
56045;SDS011;41913;51.030;3.706;2023-04-03T08:13:44;0.57;;;0.57;;
56045;SDS011;41913;51.030;3.706;2023-04-03T08:19:00;0.60;;;0.60;;
56045;SDS011;41913;51.030;3.706;2023-04-03T08:21:25;0.50;;;0.50;;
56045;SDS011;41913;51.030;3.706;2023-04-03T08:23:51;0.55;;;0.55;;
56045;SDS011;41913;51.030;3.706;2023-04-03T08:26:18;0.68;;;0.68;;
56045;SDS011;41913;51.030;3.706;2023-04-03T08:28:46;0.70;;;0.70;;
56045;SDS011;41913;51.030;3.706;2023-04-03T08:33:43;0.52;;;0.52;;
56045;SDS011;41913;51.030;3.706;2023-04-03T08:41:40;0.52;;;0.52;;
56045;SDS011;41913;51.030;3.706;2023-04-03T08:46:56;0.70;;;0.70;;
56045;SDS011;41913;51.030;3.706;2023-04-03T08:52:11;0.60;;;0.60;;
56045;SDS011;41913;51.030;3.706;2023-04-03T08:55:04;0.68;;;0.55;;
56045;SDS011;41913;51.030;3.706;2023-04-03T08:57:40;0.45;;;0.45;;
56045;SDS011;41913;51.030;3.706;2023-04-03T09:00:20;0.50;;;0.50;;
56045;SDS011;41913;51.030;3.706;2023-04-03T09:02:50;0.60;;;0.60;;
56045;SDS011;41913;51.030;3.706;2023-04-03T09:08:29;0.50;;;0.50;;
56045;SDS011;41913;51.030;3.706;2023-04-03T09:13:44;0.40;;;0.40;;
56045;SDS011;41913;51.030;3.706;2023-04-03T09:16:26;0.70;;;0.70;;
56045;SDS011;41913;51.030;3.706;2023-04-03T09:22:35;0.70;;;0.70;;
56045;SDS011;41913;51.030;3.706;2023-04-03T09:27:54;0.65;;;0.65;;
56045;SDS011;41913;51.030;3.706;2023-04-03T09:30:29;0.50;;;0.50;;
56045;SDS011;41913;51.030;3.706;2023-04-03T09:32:55;0.50;;;0.50;;
56045;SDS011;41913;51.030;3.706;2023-04-03T09:42:53;0.43;;;0.43;;
56045;SDS011;41913;51.030;3.706;2023-04-03T09:45:38;0.45;;;0.45;;
56045;SDS011;41913;51.030;3.706;2023-04-03T09:50:56;0.63;;;0.60;;
56045;SDS011;41913;51.030;3.706;2023-04-03T09:56:20;0.43;;;0.40;;
56045;SDS011;41913;51.030;3.706;2023-04-03T10:01:42;0.30;;;0.30;;
56045;SDS011;41913;51.030;3.706;2023-04-03T10:04:22;0.40;;;0.40;;
56045;SDS011;41913;51.030;3.706;2023-04-03T10:06:50;0.50;;;0.50;;
56045;SDS011;41913;51.030;3.706;2023-04-03T10:12:09;0.75;;;0.70;;
56045;SDS011;41913;51.030;3.706;2023-04-03T10:14:41;0.50;;;0.50;;
56045;SDS011;41913;51.030;3.706;2023-04-03T10:23:21;0.60;;;0.60;;
56045;SDS011;41913;51.030;3.706;2023-04-03T10:29:21;0.30;;;0.30;;
56045;SDS011;41913;51.030;3.706;2023-04-03T10:34:45;1.75;;;0.80;;
56045;SDS011;41913;51.030;3.706;2023-04-03T10:37:30;0.57;;;0.57;;
56045;SDS011;41913;51.030;3.706;2023-04-03T10:40:12;0.35;;;0.35;;
56045;SDS011;41913;51.030;3.706;2023-04-03T10:48:24;0.75;;;0.73;;
56045;SDS011;41913;51.030;3.706;2023-04-03T11:02:22;0.47;;;0.47;;
56045;SDS011;41913;51.030;3.706;2023-04-03T11:04:52;0.60;;;0.60;;
56045;SDS011;41913;51.030;3.706;2023-04-03T11:07:29;0.75;;;0.60;;
56045;SDS011;41913;51.030;3.706;2023-04-03T11:10:10;0.68;;;0.68;;
56045;SDS011;41913;51.030;3.706;2023-04-03T11:12:58;0.85;;;0.73;;
56045;SDS011;41913;51.030;3.706;2023-04-03T11:15:33;1.83;;;0.60;;
56045;SDS011;41913;51.030;3.706;2023-04-03T11:18:03;0.70;;;0.70;;
56045;SDS011;41913;51.030;3.706;2023-04-03T11:20:53;0.40;;;0.40;;
56045;SDS011;41913;51.030;3.706;2023-04-03T11:23:35;0.57;;;0.57;;
56045;SDS011;41913;51.030;3.706;2023-04-03T11:26:15;0.50;;;0.50;;
56045;SDS011;41913;51.030;3.706;2023-04-03T11:28:58;1.05;;;0.52;;
56045;SDS011;41913;51.030;3.706;2023-04-03T11:31:42;0.43;;;0.43;;
56045;SDS011;41913;51.030;3.706;2023-04-03T11:37:21;0.50;;;0.50;;
56045;SDS011;41913;51.030;3.706;2023-04-03T11:39:55;0.60;;;0.60;;
56045;SDS011;41913;51.030;3.706;2023-04-03T11:42:36;0.65;;;0.65;;
56045;SDS011;41913;51.030;3.706;2023-04-03T11:50:59;0.57;;;0.57;;
56045;SDS011;41913;51.030;3.706;2023-04-03T11:53:40;0.70;;;0.70;;
56045;SDS011;41913;51.030;3.706;2023-04-03T12:04:15;0.88;;;0.88;;
56045;SDS011;41913;51.030;3.706;2023-04-03T12:09:26;1.27;;;1.15;;
56045;SDS011;41913;51.030;3.706;2023-04-03T12:12:01;0.73;;;0.73;;
56045;SDS011;41913;51.030;3.706;2023-04-03T12:14:51;0.70;;;0.45;;
56045;SDS011;41913;51.030;3.706;2023-04-03T12:17:25;0.77;;;0.77;;
56045;SDS011;41913;51.030;3.706;2023-04-03T12:19:52;0.50;;;0.50;;
56045;SDS011;41913;51.030;3.706;2023-04-03T12:22:21;0.70;;;0.70;;
56045;SDS011;41913;51.030;3.706;2023-04-03T12:24:48;0.45;;;0.45;;
56045;SDS011;41913;51.030;3.706;2023-04-03T12:27:27;0.60;;;0.60;;
56045;SDS011;41913;51.030;3.706;2023-04-03T12:41:18;0.50;;;0.50;;
56045;SDS011;41913;51.030;3.706;2023-04-03T12:44:30;0.95;;;0.60;;
56045;SDS011;41913;51.030;3.706;2023-04-03T12:50:13;0.32;;;0.32;;
56045;SDS011;41913;51.030;3.706;2023-04-03T12:52:45;0.82;;;0.82;;
56045;SDS011;41913;51.030;3.706;2023-04-03T12:55:22;0.73;;;0.73;;
56045;SDS011;41913;51.030;3.706;2023-04-03T12:57:48;0.65;;;0.65;;
56045;SDS011;41913;51.030;3.706;2023-04-03T13:00:34;0.57;;;0.52;;
56045;SDS011;41913;51.030;3.706;2023-04-03T13:03:01;1.70;;;0.98;;
56045;SDS011;41913;51.030;3.706;2023-04-03T13:05:27;0.73;;;0.73;;
56045;SDS011;41913;51.030;3.706;2023-04-03T13:07:58;0.68;;;0.65;;
56045;SDS011;41913;51.030;3.706;2023-04-03T13:10:30;0.70;;;0.68;;
56045;SDS011;41913;51.030;3.706;2023-04-03T13:15:42;0.77;;;0.77;;
56045;SDS011;41913;51.030;3.706;2023-04-03T13:20:57;0.60;;;0.60;;
56045;SDS011;41913;51.030;3.706;2023-04-03T13:23:27;0.70;;;0.70;;
56045;SDS011;41913;51.030;3.706;2023-04-03T13:25:55;0.75;;;0.75;;
56045;SDS011;41913;51.030;3.706;2023-04-03T13:28:25;0.82;;;0.80;;
56045;SDS011;41913;51.030;3.706;2023-04-03T13:31:08;0.68;;;0.68;;
56045;SDS011;41913;51.030;3.706;2023-04-03T13:33:55;0.50;;;0.50;;
56045;SDS011;41913;51.030;3.706;2023-04-03T13:36:31;0.70;;;0.70;;
56045;SDS011;41913;51.030;3.706;2023-04-03T13:39:02;0.45;;;0.45;;
56045;SDS011;41913;51.030;3.706;2023-04-03T13:41:39;0.70;;;0.70;;
56045;SDS011;41913;51.030;3.706;2023-04-03T13:44:17;0.65;;;0.60;;
56045;SDS011;41913;51.030;3.706;2023-04-03T13:46:44;0.75;;;0.75;;
56045;SDS011;41913;51.030;3.706;2023-04-03T13:49:46;0.52;;;0.52;;
56045;SDS011;41913;51.030;3.706;2023-04-03T13:54:51;0.57;;;0.57;;
56045;SDS011;41913;51.030;3.706;2023-04-03T13:57:21;0.50;;;0.50;;
56045;SDS011;41913;51.030;3.706;2023-04-03T13:59:47;1.00;;;0.47;;
56045;SDS011;41913;51.030;3.706;2023-04-03T14:02:29;0.40;;;0.40;;
56045;SDS011;41913;51.030;3.706;2023-04-03T14:04:58;1.00;;;0.55;;
56045;SDS011;41913;51.030;3.706;2023-04-03T14:07:28;0.55;;;0.55;;
56045;SDS011;41913;51.030;3.706;2023-04-03T14:09:54;0.85;;;0.73;;
56045;SDS011;41913;51.030;3.706;2023-04-03T14:14:59;0.55;;;0.55;;
56045;SDS011;41913;51.030;3.706;2023-04-03T14:17:28;0.70;;;0.70;;
56045;SDS011;41913;51.030;3.706;2023-04-03T14:19:55;0.80;;;0.80;;
56045;SDS011;41913;51.030;3.706;2023-04-03T14:22:26;0.47;;;0.47;;
56045;SDS011;41913;51.030;3.706;2023-04-03T14:24:57;0.50;;;0.50;;
56045;SDS011;41913;51.030;3.706;2023-04-03T14:27:25;0.75;;;0.52;;
56045;SDS011;41913;51.030;3.706;2023-04-03T14:29:55;0.55;;;0.55;;
56045;SDS011;41913;51.030;3.706;2023-04-03T14:32:23;0.45;;;0.45;;
56045;SDS011;41913;51.030;3.706;2023-04-03T14:34:50;0.60;;;0.60;;
56045;SDS011;41913;51.030;3.706;2023-04-03T14:37:19;0.35;;;0.35;;
56045;SDS011;41913;51.030;3.706;2023-04-03T14:39:49;0.75;;;0.52;;
56045;SDS011;41913;51.030;3.706;2023-04-03T14:44:48;0.55;;;0.55;;
56045;SDS011;41913;51.030;3.706;2023-04-03T14:47:17;0.65;;;0.50;;
56045;SDS011;41913;51.030;3.706;2023-04-03T14:49:46;0.40;;;0.40;;
56045;SDS011;41913;51.030;3.706;2023-04-03T14:52:29;0.60;;;0.60;;
56045;SDS011;41913;51.030;3.706;2023-04-03T14:54:58;0.40;;;0.40;;
56045;SDS011;41913;51.030;3.706;2023-04-03T14:57:32;0.40;;;0.40;;
56045;SDS011;41913;51.030;3.706;2023-04-03T14:59:59;0.60;;;0.60;;
56045;SDS011;41913;51.030;3.706;2023-04-03T15:02:32;0.57;;;0.57;;
56045;SDS011;41913;51.030;3.706;2023-04-03T15:05:06;0.50;;;0.50;;
56045;SDS011;41913;51.030;3.706;2023-04-03T15:07:36;0.63;;;0.63;;
56045;SDS011;41913;51.030;3.706;2023-04-03T15:10:23;0.70;;;0.50;;
56045;SDS011;41913;51.030;3.706;2023-04-03T15:12:52;0.43;;;0.43;;
56045;SDS011;41913;51.030;3.706;2023-04-03T15:15:19;0.50;;;0.50;;
56045;SDS011;41913;51.030;3.706;2023-04-03T15:17:52;0.40;;;0.40;;
56045;SDS011;41913;51.030;3.706;2023-04-03T15:22:49;0.65;;;0.65;;
56045;SDS011;41913;51.030;3.706;2023-04-03T15:25:15;0.90;;;0.80;;
56045;SDS011;41913;51.030;3.706;2023-04-03T15:27:43;0.50;;;0.50;;
56045;SDS011;41913;51.030;3.706;2023-04-03T15:30:17;0.50;;;0.50;;
56045;SDS011;41913;51.030;3.706;2023-04-03T15:32:44;0.50;;;0.50;;
56045;SDS011;41913;51.030;3.706;2023-04-03T15:35:17;0.40;;;0.40;;
56045;SDS011;41913;51.030;3.706;2023-04-03T15:37:45;0.30;;;0.30;;
56045;SDS011;41913;51.030;3.706;2023-04-03T15:40:12;0.40;;;0.40;;
56045;SDS011;41913;51.030;3.706;2023-04-03T15:42:39;2.03;;;0.57;;
56045;SDS011;41913;51.030;3.706;2023-04-03T15:45:05;0.40;;;0.40;;
56045;SDS011;41913;51.030;3.706;2023-04-03T15:47:34;1.55;;;0.50;;
56045;SDS011;41913;51.030;3.706;2023-04-03T15:50:00;0.50;;;0.50;;
56045;SDS011;41913;51.030;3.706;2023-04-03T15:52:29;0.60;;;0.60;;
56045;SDS011;41913;51.030;3.706;2023-04-03T15:54:55;0.60;;;0.60;;
56045;SDS011;41913;51.030;3.706;2023-04-03T15:57:20;0.30;;;0.30;;
56045;SDS011;41913;51.030;3.706;2023-04-03T15:59:50;0.30;;;0.30;;
56045;SDS011;41913;51.030;3.706;2023-04-03T16:02:16;0.40;;;0.40;;
56045;SDS011;41913;51.030;3.706;2023-04-03T16:04:42;0.50;;;0.50;;
56045;SDS011;41913;51.030;3.706;2023-04-03T16:07:08;0.40;;;0.38;;
56045;SDS011;41913;51.030;3.706;2023-04-03T16:09:35;0.50;;;0.50;;
56045;SDS011;41913;51.030;3.706;2023-04-03T16:12:01;0.50;;;0.50;;
56045;SDS011;41913;51.030;3.706;2023-04-03T16:14:27;0.50;;;0.50;;
56045;SDS011;41913;51.030;3.706;2023-04-03T16:16:55;0.60;;;0.60;;
56045;SDS011;41913;51.030;3.706;2023-04-03T16:19:21;0.47;;;0.47;;
56045;SDS011;41913;51.030;3.706;2023-04-03T16:21:48;0.40;;;0.40;;
56045;SDS011;41913;51.030;3.706;2023-04-03T16:24:13;0.60;;;0.60;;
56045;SDS011;41913;51.030;3.706;2023-04-03T16:26:39;0.50;;;0.50;;
56045;SDS011;41913;51.030;3.706;2023-04-03T16:29:05;0.50;;;0.50;;
56045;SDS011;41913;51.030;3.706;2023-04-03T16:31:31;0.57;;;0.30;;
56045;SDS011;41913;51.030;3.706;2023-04-03T16:33:58;0.40;;;0.40;;
56045;SDS011;41913;51.030;3.706;2023-04-03T16:36:25;0.47;;;0.47;;
56045;SDS011;41913;51.030;3.706;2023-04-03T16:38:50;0.68;;;0.68;;
56045;SDS011;41913;51.030;3.706;2023-04-03T16:41:16;0.52;;;0.52;;
56045;SDS011;41913;51.030;3.706;2023-04-03T16:43:42;0.35;;;0.35;;
56045;SDS011;41913;51.030;3.706;2023-04-03T16:46:07;0.52;;;0.40;;
56045;SDS011;41913;51.030;3.706;2023-04-03T16:48:33;0.40;;;0.40;;
56045;SDS011;41913;51.030;3.706;2023-04-03T16:51:00;0.73;;;0.30;;
56045;SDS011;41913;51.030;3.706;2023-04-03T16:53:29;0.60;;;0.60;;
56045;SDS011;41913;51.030;3.706;2023-04-03T16:55:55;0.50;;;0.50;;
56045;SDS011;41913;51.030;3.706;2023-04-03T16:58:24;0.30;;;0.30;;
56045;SDS011;41913;51.030;3.706;2023-04-03T17:00:50;0.55;;;0.50;;
56045;SDS011;41913;51.030;3.706;2023-04-03T17:03:15;0.40;;;0.40;;
56045;SDS011;41913;51.030;3.706;2023-04-03T17:05:42;0.28;;;0.28;;
56045;SDS011;41913;51.030;3.706;2023-04-03T17:08:12;0.30;;;0.30;;
56045;SDS011;41913;51.030;3.706;2023-04-03T17:10:38;0.35;;;0.35;;
56045;SDS011;41913;51.030;3.706;2023-04-03T17:13:04;0.30;;;0.30;;
56045;SDS011;41913;51.030;3.706;2023-04-03T17:15:30;0.30;;;0.30;;
56045;SDS011;41913;51.030;3.706;2023-04-03T17:17:56;0.40;;;0.40;;
56045;SDS011;41913;51.030;3.706;2023-04-03T17:22:52;0.40;;;0.40;;
56045;SDS011;41913;51.030;3.706;2023-04-03T17:25:18;0.50;;;0.50;;
56045;SDS011;41913;51.030;3.706;2023-04-03T17:27:44;0.30;;;0.30;;
56045;SDS011;41913;51.030;3.706;2023-04-03T17:30:16;0.30;;;0.30;;
56045;SDS011;41913;51.030;3.706;2023-04-03T17:32:44;0.30;;;0.28;;
56045;SDS011;41913;51.030;3.706;2023-04-03T17:35:09;0.30;;;0.30;;
56045;SDS011;41913;51.030;3.706;2023-04-03T17:37:35;0.30;;;0.30;;
56045;SDS011;41913;51.030;3.706;2023-04-03T17:40:02;0.40;;;0.40;;
56045;SDS011;41913;51.030;3.706;2023-04-03T17:42:34;0.70;;;0.70;;
56045;SDS011;41913;51.030;3.706;2023-04-03T17:45:00;0.25;;;0.25;;
56045;SDS011;41913;51.030;3.706;2023-04-03T17:47:25;0.43;;;0.43;;
56045;SDS011;41913;51.030;3.706;2023-04-03T17:49:54;0.40;;;0.40;;
56045;SDS011;41913;51.030;3.706;2023-04-03T17:52:20;0.30;;;0.30;;
56045;SDS011;41913;51.030;3.706;2023-04-03T17:54:55;0.32;;;0.32;;
56045;SDS011;41913;51.030;3.706;2023-04-03T17:57:20;0.43;;;0.40;;
56045;SDS011;41913;51.030;3.706;2023-04-03T17:59:47;0.28;;;0.28;;
56045;SDS011;41913;51.030;3.706;2023-04-03T18:02:13;0.30;;;0.30;;
56045;SDS011;41913;51.030;3.706;2023-04-03T18:04:38;0.35;;;0.35;;
56045;SDS011;41913;51.030;3.706;2023-04-03T18:07:05;0.30;;;0.30;;
56045;SDS011;41913;51.030;3.706;2023-04-03T18:09:33;0.30;;;0.30;;